sensor_id;sensor_type;location;lat;lon;timestamp;P1;durP1;ratioP1;P2;durP2;ratioP2
51296;SDS011;37380;45.186;9.792;2022-12-19T00:01:54;83.43;;;51.53;;
51296;SDS011;37380;45.186;9.792;2022-12-19T00:04:21;88.03;;;54.95;;
51296;SDS011;37380;45.186;9.792;2022-12-19T00:06:56;85.65;;;51.67;;
51296;SDS011;37380;45.186;9.792;2022-12-19T00:09:57;104.47;;;54.72;;
51296;SDS011;37380;45.186;9.792;2022-12-19T00:12:51;89.05;;;57.08;;
51296;SDS011;37380;45.186;9.792;2022-12-19T00:15:25;85.07;;;55.83;;
51296;SDS011;37380;45.186;9.792;2022-12-19T00:18:20;86.25;;;50.88;;
51296;SDS011;37380;45.186;9.792;2022-12-19T00:20:55;81.68;;;52.38;;
51296;SDS011;37380;45.186;9.792;2022-12-19T00:23:50;102.00;;;51.20;;
51296;SDS011;37380;45.186;9.792;2022-12-19T00:26:21;94.10;;;55.70;;
51296;SDS011;37380;45.186;9.792;2022-12-19T00:28:54;80.88;;;53.55;;
51296;SDS011;37380;45.186;9.792;2022-12-19T00:31:25;89.88;;;53.17;;
51296;SDS011;37380;45.186;9.792;2022-12-19T00:33:54;92.70;;;55.03;;
51296;SDS011;37380;45.186;9.792;2022-12-19T00:36:23;92.05;;;54.90;;
51296;SDS011;37380;45.186;9.792;2022-12-19T00:38:52;88.32;;;53.75;;
51296;SDS011;37380;45.186;9.792;2022-12-19T00:41:22;95.95;;;55.28;;
51296;SDS011;37380;45.186;9.792;2022-12-19T00:43:55;89.70;;;52.50;;
51296;SDS011;37380;45.186;9.792;2022-12-19T00:46:25;103.43;;;56.38;;
51296;SDS011;37380;45.186;9.792;2022-12-19T00:48:53;89.18;;;54.53;;
51296;SDS011;37380;45.186;9.792;2022-12-19T00:51:22;88.15;;;56.38;;
51296;SDS011;37380;45.186;9.792;2022-12-19T00:53:52;86.28;;;52.97;;
51296;SDS011;37380;45.186;9.792;2022-12-19T00:56:25;102.03;;;56.60;;
51296;SDS011;37380;45.186;9.792;2022-12-19T00:58:54;102.37;;;50.13;;
51296;SDS011;37380;45.186;9.792;2022-12-19T01:03:57;113.25;;;53.88;;
51296;SDS011;37380;45.186;9.792;2022-12-19T01:06:51;101.13;;;52.35;;
51296;SDS011;37380;45.186;9.792;2022-12-19T01:09:52;99.75;;;54.83;;
51296;SDS011;37380;45.186;9.792;2022-12-19T01:12:46;104.07;;;53.85;;
51296;SDS011;37380;45.186;9.792;2022-12-19T01:15:15;98.75;;;55.42;;
51296;SDS011;37380;45.186;9.792;2022-12-19T01:17:43;120.30;;;55.53;;
51296;SDS011;37380;45.186;9.792;2022-12-19T01:20:18;131.50;;;58.42;;
51296;SDS011;37380;45.186;9.792;2022-12-19T01:23:20;126.55;;;58.25;;
51296;SDS011;37380;45.186;9.792;2022-12-19T01:26:14;110.13;;;55.97;;
51296;SDS011;37380;45.186;9.792;2022-12-19T01:28:41;160.95;;;63.22;;
51296;SDS011;37380;45.186;9.792;2022-12-19T01:31:08;123.70;;;59.88;;
51296;SDS011;37380;45.186;9.792;2022-12-19T01:33:38;122.53;;;60.55;;
51296;SDS011;37380;45.186;9.792;2022-12-19T01:36:07;127.88;;;60.45;;
51296;SDS011;37380;45.186;9.792;2022-12-19T01:38:41;183.68;;;61.63;;
51296;SDS011;37380;45.186;9.792;2022-12-19T01:41:42;111.38;;;57.70;;
51296;SDS011;37380;45.186;9.792;2022-12-19T01:47:30;118.65;;;59.60;;
51296;SDS011;37380;45.186;9.792;2022-12-19T01:50:01;123.53;;;61.00;;
51296;SDS011;37380;45.186;9.792;2022-12-19T01:52:35;124.07;;;63.00;;
51296;SDS011;37380;45.186;9.792;2022-12-19T01:55:29;113.35;;;61.20;;
51296;SDS011;37380;45.186;9.792;2022-12-19T01:57:57;117.70;;;56.55;;
51296;SDS011;37380;45.186;9.792;2022-12-19T02:00:25;112.47;;;63.70;;
51296;SDS011;37380;45.186;9.792;2022-12-19T02:02:54;165.88;;;62.28;;
51296;SDS011;37380;45.186;9.792;2022-12-19T02:05:27;169.57;;;58.38;;
51296;SDS011;37380;45.186;9.792;2022-12-19T02:08:02;149.00;;;63.55;;
51296;SDS011;37380;45.186;9.792;2022-12-19T02:10:57;97.47;;;56.25;;
51296;SDS011;37380;45.186;9.792;2022-12-19T02:13:26;118.22;;;61.53;;
51296;SDS011;37380;45.186;9.792;2022-12-19T02:15:58;208.10;;;66.82;;
51296;SDS011;37380;45.186;9.792;2022-12-19T02:18:48;181.73;;;64.85;;
51296;SDS011;37380;45.186;9.792;2022-12-19T02:21:28;158.23;;;59.95;;
51296;SDS011;37380;45.186;9.792;2022-12-19T02:24:59;153.90;;;60.55;;
51296;SDS011;37380;45.186;9.792;2022-12-19T02:33:39;144.73;;;63.50;;
51296;SDS011;37380;45.186;9.792;2022-12-19T02:36:14;154.68;;;62.20;;
51296;SDS011;37380;45.186;9.792;2022-12-19T02:39:25;150.15;;;65.10;;
51296;SDS011;37380;45.186;9.792;2022-12-19T02:42:29;132.25;;;61.90;;
51296;SDS011;37380;45.186;9.792;2022-12-19T02:45:02;143.73;;;60.42;;
51296;SDS011;37380;45.186;9.792;2022-12-19T02:47:32;174.88;;;61.70;;
51296;SDS011;37380;45.186;9.792;2022-12-19T02:50:01;156.07;;;64.43;;
51296;SDS011;37380;45.186;9.792;2022-12-19T02:55:20;157.70;;;66.10;;
51296;SDS011;37380;45.186;9.792;2022-12-19T02:58:11;114.75;;;58.28;;
51296;SDS011;37380;45.186;9.792;2022-12-19T03:00:51;155.70;;;66.60;;
51296;SDS011;37380;45.186;9.792;2022-12-19T03:10:25;105.30;;;59.95;;
51296;SDS011;37380;45.186;9.792;2022-12-19T03:12:33;147.25;;;65.45;;
51296;SDS011;37380;45.186;9.792;2022-12-19T03:15:06;112.90;;;61.72;;
51296;SDS011;37380;45.186;9.792;2022-12-19T03:17:35;105.97;;;60.58;;
51296;SDS011;37380;45.186;9.792;2022-12-19T03:20:25;167.02;;;70.32;;
51296;SDS011;37380;45.186;9.792;2022-12-19T03:23:36;117.43;;;58.40;;
51296;SDS011;37380;45.186;9.792;2022-12-19T03:26:40;123.70;;;67.15;;
51296;SDS011;37380;45.186;9.792;2022-12-19T03:29:55;129.77;;;66.57;;
51296;SDS011;37380;45.186;9.792;2022-12-19T03:32:30;135.00;;;66.72;;
51296;SDS011;37380;45.186;9.792;2022-12-19T03:35:03;122.80;;;67.45;;
51296;SDS011;37380;45.186;9.792;2022-12-19T03:37:36;152.75;;;67.03;;
51296;SDS011;37380;45.186;9.792;2022-12-19T03:40:20;133.85;;;65.25;;
51296;SDS011;37380;45.186;9.792;2022-12-19T03:42:51;145.73;;;69.80;;
51296;SDS011;37380;45.186;9.792;2022-12-19T03:48:26;145.40;;;65.13;;
51296;SDS011;37380;45.186;9.792;2022-12-19T03:51:48;140.02;;;65.40;;
51296;SDS011;37380;45.186;9.792;2022-12-19T03:53:58;172.63;;;72.18;;
51296;SDS011;37380;45.186;9.792;2022-12-19T03:56:38;120.03;;;62.65;;
51296;SDS011;37380;45.186;9.792;2022-12-19T03:59:18;167.20;;;69.15;;
51296;SDS011;37380;45.186;9.792;2022-12-19T04:02:05;130.77;;;65.18;;
51296;SDS011;37380;45.186;9.792;2022-12-19T04:05:22;116.80;;;64.50;;
51296;SDS011;37380;45.186;9.792;2022-12-19T04:08:25;163.02;;;64.72;;
51296;SDS011;37380;45.186;9.792;2022-12-19T04:13:54;122.93;;;62.25;;
51296;SDS011;37380;45.186;9.792;2022-12-19T04:18:57;119.30;;;62.17;;
51296;SDS011;37380;45.186;9.792;2022-12-19T04:22:04;129.45;;;60.33;;
51296;SDS011;37380;45.186;9.792;2022-12-19T04:24:38;125.25;;;65.57;;
51296;SDS011;37380;45.186;9.792;2022-12-19T04:27:08;137.20;;;66.82;;
51296;SDS011;37380;45.186;9.792;2022-12-19T04:29:37;118.15;;;67.82;;
51296;SDS011;37380;45.186;9.792;2022-12-19T04:32:05;131.93;;;66.32;;
51296;SDS011;37380;45.186;9.792;2022-12-19T04:34:33;134.23;;;62.17;;
51296;SDS011;37380;45.186;9.792;2022-12-19T04:37:08;125.70;;;60.70;;
51296;SDS011;37380;45.186;9.792;2022-12-19T04:39:36;124.60;;;66.05;;
51296;SDS011;37380;45.186;9.792;2022-12-19T04:42:03;110.40;;;62.97;;
51296;SDS011;37380;45.186;9.792;2022-12-19T04:44:30;124.97;;;62.42;;
51296;SDS011;37380;45.186;9.792;2022-12-19T04:47:04;114.55;;;59.78;;
51296;SDS011;37380;45.186;9.792;2022-12-19T04:50:05;123.25;;;63.33;;
51296;SDS011;37380;45.186;9.792;2022-12-19T04:52:59;106.55;;;61.30;;
51296;SDS011;37380;45.186;9.792;2022-12-19T04:55:27;132.65;;;69.68;;
51296;SDS011;37380;45.186;9.792;2022-12-19T04:57:54;124.40;;;63.75;;
51296;SDS011;37380;45.186;9.792;2022-12-19T05:00:21;112.47;;;70.63;;
51296;SDS011;37380;45.186;9.792;2022-12-19T05:02:50;112.53;;;60.08;;
51296;SDS011;37380;45.186;9.792;2022-12-19T05:05:17;115.82;;;64.00;;
51296;SDS011;37380;45.186;9.792;2022-12-19T05:07:51;118.18;;;58.50;;
51296;SDS011;37380;45.186;9.792;2022-12-19T05:10:39;125.88;;;64.88;;
51296;SDS011;37380;45.186;9.792;2022-12-19T05:13:06;116.88;;;64.43;;
51296;SDS011;37380;45.186;9.792;2022-12-19T05:15:33;110.25;;;62.53;;
51296;SDS011;37380;45.186;9.792;2022-12-19T05:18:00;121.35;;;65.47;;
51296;SDS011;37380;45.186;9.792;2022-12-19T05:20:35;130.05;;;68.85;;
51296;SDS011;37380;45.186;9.792;2022-12-19T05:23:29;125.93;;;64.13;;
51296;SDS011;37380;45.186;9.792;2022-12-19T05:25:57;114.82;;;62.83;;
51296;SDS011;37380;45.186;9.792;2022-12-19T05:28:29;130.73;;;67.88;;
51296;SDS011;37380;45.186;9.792;2022-12-19T05:31:08;129.95;;;65.95;;
51296;SDS011;37380;45.186;9.792;2022-12-19T05:34:02;125.97;;;65.80;;
51296;SDS011;37380;45.186;9.792;2022-12-19T05:36:30;121.60;;;66.50;;
51296;SDS011;37380;45.186;9.792;2022-12-19T05:38:58;129.27;;;65.95;;
51296;SDS011;37380;45.186;9.792;2022-12-19T05:41:25;123.72;;;69.97;;
51296;SDS011;37380;45.186;9.792;2022-12-19T05:43:53;126.18;;;69.20;;
51296;SDS011;37380;45.186;9.792;2022-12-19T05:46:22;119.10;;;64.38;;
51296;SDS011;37380;45.186;9.792;2022-12-19T05:48:50;132.23;;;69.80;;
51296;SDS011;37380;45.186;9.792;2022-12-19T05:51:17;130.52;;;67.82;;
51296;SDS011;37380;45.186;9.792;2022-12-19T05:53:44;126.88;;;67.30;;
51296;SDS011;37380;45.186;9.792;2022-12-19T05:56:13;124.80;;;71.32;;
51296;SDS011;37380;45.186;9.792;2022-12-19T05:58:43;111.10;;;67.13;;
51296;SDS011;37380;45.186;9.792;2022-12-19T06:01:18;129.73;;;68.47;;
51296;SDS011;37380;45.186;9.792;2022-12-19T06:04:49;120.65;;;67.05;;
51296;SDS011;37380;45.186;9.792;2022-12-19T06:07:43;120.97;;;70.20;;
51296;SDS011;37380;45.186;9.792;2022-12-19T06:10:37;120.20;;;69.43;;
51296;SDS011;37380;45.186;9.792;2022-12-19T06:13:05;114.75;;;69.28;;
51296;SDS011;37380;45.186;9.792;2022-12-19T06:15:38;136.32;;;72.88;;
51296;SDS011;37380;45.186;9.792;2022-12-19T06:18:32;157.35;;;77.88;;
51296;SDS011;37380;45.186;9.792;2022-12-19T06:21:08;175.15;;;79.40;;
51296;SDS011;37380;45.186;9.792;2022-12-19T06:24:12;176.65;;;82.38;;
51296;SDS011;37380;45.186;9.792;2022-12-19T06:27:06;181.93;;;80.72;;
51296;SDS011;37380;45.186;9.792;2022-12-19T06:29:34;168.98;;;77.32;;
51296;SDS011;37380;45.186;9.792;2022-12-19T06:32:01;175.13;;;79.70;;
51296;SDS011;37380;45.186;9.792;2022-12-19T06:34:28;190.75;;;87.25;;
51296;SDS011;37380;45.186;9.792;2022-12-19T06:37:16;181.40;;;79.45;;
51296;SDS011;37380;45.186;9.792;2022-12-19T06:39:43;198.10;;;84.93;;
51296;SDS011;37380;45.186;9.792;2022-12-19T06:42:10;197.32;;;88.88;;
51296;SDS011;37380;45.186;9.792;2022-12-19T06:44:55;227.77;;;89.50;;
51296;SDS011;37380;45.186;9.792;2022-12-19T06:47:49;195.88;;;75.18;;
51296;SDS011;37380;45.186;9.792;2022-12-19T06:50:16;198.55;;;81.85;;
51296;SDS011;37380;45.186;9.792;2022-12-19T06:52:43;202.32;;;82.22;;
51296;SDS011;37380;45.186;9.792;2022-12-19T06:55:10;173.88;;;80.40;;
51296;SDS011;37380;45.186;9.792;2022-12-19T06:57:44;185.23;;;84.20;;
51296;SDS011;37380;45.186;9.792;2022-12-19T07:00:38;160.10;;;79.68;;
51296;SDS011;37380;45.186;9.792;2022-12-19T07:06:23;170.70;;;74.25;;
51296;SDS011;37380;45.186;9.792;2022-12-19T07:09:26;158.93;;;79.40;;
51296;SDS011;37380;45.186;9.792;2022-12-19T07:12:22;149.32;;;77.88;;
51296;SDS011;37380;45.186;9.792;2022-12-19T07:14:56;134.73;;;74.60;;
51296;SDS011;37380;45.186;9.792;2022-12-19T07:17:50;140.60;;;74.18;;
51296;SDS011;37380;45.186;9.792;2022-12-19T07:20:24;162.18;;;71.82;;
51296;SDS011;37380;45.186;9.792;2022-12-19T07:23:23;136.00;;;70.85;;
51296;SDS011;37380;45.186;9.792;2022-12-19T07:25:51;153.60;;;73.50;;
51296;SDS011;37380;45.186;9.792;2022-12-19T07:28:18;154.50;;;75.97;;
51296;SDS011;37380;45.186;9.792;2022-12-19T07:30:45;134.00;;;76.32;;
51296;SDS011;37380;45.186;9.792;2022-12-19T07:33:12;147.05;;;73.50;;
51296;SDS011;37380;45.186;9.792;2022-12-19T07:35:46;146.05;;;74.72;;
51296;SDS011;37380;45.186;9.792;2022-12-19T07:38:14;142.85;;;73.78;;
51296;SDS011;37380;45.186;9.792;2022-12-19T07:40:41;124.85;;;72.20;;
51296;SDS011;37380;45.186;9.792;2022-12-19T07:43:08;149.75;;;80.07;;
51296;SDS011;37380;45.186;9.792;2022-12-19T07:45:36;144.48;;;72.10;;
51296;SDS011;37380;45.186;9.792;2022-12-19T07:48:10;138.40;;;72.90;;
51296;SDS011;37380;45.186;9.792;2022-12-19T07:51:04;131.30;;;71.88;;
51296;SDS011;37380;45.186;9.792;2022-12-19T07:53:32;142.23;;;77.15;;
51296;SDS011;37380;45.186;9.792;2022-12-19T07:56:05;141.60;;;73.05;;
51296;SDS011;37380;45.186;9.792;2022-12-19T07:58:59;151.57;;;74.03;;
51296;SDS011;37380;45.186;9.792;2022-12-19T08:01:27;150.05;;;76.20;;
51296;SDS011;37380;45.186;9.792;2022-12-19T08:03:55;133.15;;;73.15;;
51296;SDS011;37380;45.186;9.792;2022-12-19T08:06:29;151.60;;;70.53;;
51296;SDS011;37380;45.186;9.792;2022-12-19T08:09:30;135.50;;;73.32;;
51296;SDS011;37380;45.186;9.792;2022-12-19T08:12:32;156.18;;;75.05;;
51296;SDS011;37380;45.186;9.792;2022-12-19T08:15:20;157.57;;;76.97;;
51296;SDS011;37380;45.186;9.792;2022-12-19T08:18:14;156.73;;;78.00;;
51296;SDS011;37380;45.186;9.792;2022-12-19T08:20:48;162.00;;;75.35;;
51296;SDS011;37380;45.186;9.792;2022-12-19T08:23:49;157.95;;;74.50;;
51296;SDS011;37380;45.186;9.792;2022-12-19T08:26:44;164.48;;;74.82;;
51296;SDS011;37380;45.186;9.792;2022-12-19T08:29:16;157.15;;;78.57;;
51296;SDS011;37380;45.186;9.792;2022-12-19T08:31:44;148.75;;;71.78;;
51296;SDS011;37380;45.186;9.792;2022-12-19T08:34:17;151.32;;;75.00;;
51296;SDS011;37380;45.186;9.792;2022-12-19T08:37:16;150.48;;;70.10;;
51296;SDS011;37380;45.186;9.792;2022-12-19T08:39:43;150.98;;;72.78;;
51296;SDS011;37380;45.186;9.792;2022-12-19T08:42:10;159.57;;;77.05;;
51296;SDS011;37380;45.186;9.792;2022-12-19T08:44:44;139.45;;;67.57;;
51296;SDS011;37380;45.186;9.792;2022-12-19T08:47:38;128.02;;;68.40;;
51296;SDS011;37380;45.186;9.792;2022-12-19T08:50:10;134.63;;;68.63;;
51296;SDS011;37380;45.186;9.792;2022-12-19T08:52:44;131.23;;;68.78;;
51296;SDS011;37380;45.186;9.792;2022-12-19T08:55:13;149.18;;;67.88;;
51296;SDS011;37380;45.186;9.792;2022-12-19T08:57:40;147.85;;;71.82;;
51296;SDS011;37380;45.186;9.792;2022-12-19T09:00:08;136.88;;;68.07;;
51296;SDS011;37380;45.186;9.792;2022-12-19T09:02:37;144.43;;;70.50;;
51296;SDS011;37380;45.186;9.792;2022-12-19T09:05:28;139.02;;;71.30;;
51296;SDS011;37380;45.186;9.792;2022-12-19T09:08:49;148.48;;;69.40;;
51296;SDS011;37380;45.186;9.792;2022-12-19T09:11:44;144.98;;;71.60;;
51296;SDS011;37380;45.186;9.792;2022-12-19T09:14:13;150.10;;;69.25;;
51296;SDS011;37380;45.186;9.792;2022-12-19T09:16:48;149.97;;;67.73;;
51296;SDS011;37380;45.186;9.792;2022-12-19T09:19:22;142.52;;;67.90;;
51296;SDS011;37380;45.186;9.792;2022-12-19T09:22:24;171.60;;;76.45;;
51296;SDS011;37380;45.186;9.792;2022-12-19T09:25:31;143.93;;;65.40;;
51296;SDS011;37380;45.186;9.792;2022-12-19T09:28:26;158.30;;;72.45;;
51296;SDS011;37380;45.186;9.792;2022-12-19T09:30:57;171.52;;;80.45;;
51296;SDS011;37380;45.186;9.792;2022-12-19T09:33:26;171.93;;;77.38;;
51296;SDS011;37380;45.186;9.792;2022-12-19T09:35:54;184.73;;;79.57;;
51296;SDS011;37380;45.186;9.792;2022-12-19T09:38:22;154.18;;;75.60;;
51296;SDS011;37380;45.186;9.792;2022-12-19T09:40:58;154.15;;;70.93;;
51296;SDS011;37380;45.186;9.792;2022-12-19T09:46:38;136.15;;;67.75;;
51296;SDS011;37380;45.186;9.792;2022-12-19T09:49:18;159.20;;;69.60;;
51296;SDS011;37380;45.186;9.792;2022-12-19T09:54:33;137.77;;;72.43;;
51296;SDS011;37380;45.186;9.792;2022-12-19T09:57:05;152.00;;;68.05;;
51296;SDS011;37380;45.186;9.792;2022-12-19T09:59:45;151.77;;;73.32;;
51296;SDS011;37380;45.186;9.792;2022-12-19T10:02:25;144.93;;;73.43;;
51296;SDS011;37380;45.186;9.792;2022-12-19T10:05:02;146.98;;;73.60;;
51296;SDS011;37380;45.186;9.792;2022-12-19T10:08:42;142.75;;;66.90;;
51296;SDS011;37380;45.186;9.792;2022-12-19T10:15:02;123.40;;;65.30;;
51296;SDS011;37380;45.186;9.792;2022-12-19T10:17:52;122.20;;;67.78;;
51296;SDS011;37380;45.186;9.792;2022-12-19T10:20:44;125.82;;;67.15;;
51296;SDS011;37380;45.186;9.792;2022-12-19T10:24:40;131.30;;;72.28;;
51296;SDS011;37380;45.186;9.792;2022-12-19T10:30:32;137.23;;;72.55;;
51296;SDS011;37380;45.186;9.792;2022-12-19T10:35:49;123.45;;;70.20;;
51296;SDS011;37380;45.186;9.792;2022-12-19T10:38:30;111.13;;;65.80;;
51296;SDS011;37380;45.186;9.792;2022-12-19T10:44:00;116.35;;;62.33;;
51296;SDS011;37380;45.186;9.792;2022-12-19T10:52:00;124.25;;;63.05;;
51296;SDS011;37380;45.186;9.792;2022-12-19T10:54:57;123.25;;;67.18;;
51296;SDS011;37380;45.186;9.792;2022-12-19T10:57:28;115.95;;;65.10;;
51296;SDS011;37380;45.186;9.792;2022-12-19T11:00:13;114.13;;;64.07;;
51296;SDS011;37380;45.186;9.792;2022-12-19T11:02:46;119.07;;;64.03;;
51296;SDS011;37380;45.186;9.792;2022-12-19T11:05:20;112.18;;;63.78;;
51296;SDS011;37380;45.186;9.792;2022-12-19T11:08:10;111.90;;;61.85;;
51296;SDS011;37380;45.186;9.792;2022-12-19T11:14:20;123.35;;;65.60;;
51296;SDS011;37380;45.186;9.792;2022-12-19T11:20:59;127.18;;;67.43;;
51296;SDS011;37380;45.186;9.792;2022-12-19T11:24:46;122.25;;;62.47;;
51296;SDS011;37380;45.186;9.792;2022-12-19T11:27:52;120.40;;;66.80;;
51296;SDS011;37380;45.186;9.792;2022-12-19T11:30:53;128.20;;;61.58;;
51296;SDS011;37380;45.186;9.792;2022-12-19T11:33:44;117.90;;;61.40;;
51296;SDS011;37380;45.186;9.792;2022-12-19T11:37:06;130.52;;;65.13;;
51296;SDS011;37380;45.186;9.792;2022-12-19T11:39:43;103.05;;;60.20;;
51296;SDS011;37380;45.186;9.792;2022-12-19T11:43:04;112.85;;;60.22;;
51296;SDS011;37380;45.186;9.792;2022-12-19T11:46:19;94.25;;;52.00;;
51296;SDS011;37380;45.186;9.792;2022-12-19T11:49:22;87.65;;;56.03;;
51296;SDS011;37380;45.186;9.792;2022-12-19T11:52:05;101.38;;;53.22;;
51296;SDS011;37380;45.186;9.792;2022-12-19T11:58:27;99.38;;;53.72;;
51296;SDS011;37380;45.186;9.792;2022-12-19T12:07:14;83.47;;;49.72;;
51296;SDS011;37380;45.186;9.792;2022-12-19T12:10:32;86.32;;;49.65;;
51296;SDS011;37380;45.186;9.792;2022-12-19T12:13:33;89.63;;;51.38;;
51296;SDS011;37380;45.186;9.792;2022-12-19T12:19:58;93.55;;;51.10;;
51296;SDS011;37380;45.186;9.792;2022-12-19T12:24:00;77.55;;;46.70;;
51296;SDS011;37380;45.186;9.792;2022-12-19T12:27:37;85.18;;;48.55;;
51296;SDS011;37380;45.186;9.792;2022-12-19T12:44:36;78.10;;;46.72;;
51296;SDS011;37380;45.186;9.792;2022-12-19T12:47:25;90.85;;;48.47;;
51296;SDS011;37380;45.186;9.792;2022-12-19T12:50:06;82.35;;;50.30;;
51296;SDS011;37380;45.186;9.792;2022-12-19T12:53:36;83.03;;;46.92;;
51296;SDS011;37380;45.186;9.792;2022-12-19T12:56:39;79.30;;;47.65;;
51296;SDS011;37380;45.186;9.792;2022-12-19T13:01:48;70.28;;;45.10;;
51296;SDS011;37380;45.186;9.792;2022-12-19T13:04:34;91.22;;;50.63;;
51296;SDS011;37380;45.186;9.792;2022-12-19T13:07:53;88.22;;;50.10;;
51296;SDS011;37380;45.186;9.792;2022-12-19T13:10:53;89.28;;;49.45;;
51296;SDS011;37380;45.186;9.792;2022-12-19T13:19:13;77.35;;;46.97;;
51296;SDS011;37380;45.186;9.792;2022-12-19T13:24:41;81.72;;;47.72;;
51296;SDS011;37380;45.186;9.792;2022-12-19T13:35:55;74.13;;;46.78;;
51296;SDS011;37380;45.186;9.792;2022-12-19T13:38:49;75.93;;;42.75;;
51296;SDS011;37380;45.186;9.792;2022-12-19T13:42:13;79.05;;;45.97;;
51296;SDS011;37380;45.186;9.792;2022-12-19T13:45:33;97.35;;;55.33;;
51296;SDS011;37380;45.186;9.792;2022-12-19T13:48:39;99.68;;;53.25;;
51296;SDS011;37380;45.186;9.792;2022-12-19T13:51:51;93.40;;;54.17;;
51296;SDS011;37380;45.186;9.792;2022-12-19T13:54:29;94.70;;;57.50;;
51296;SDS011;37380;45.186;9.792;2022-12-19T13:57:29;90.82;;;49.65;;
51296;SDS011;37380;45.186;9.792;2022-12-19T14:00:01;94.65;;;50.40;;
51296;SDS011;37380;45.186;9.792;2022-12-19T14:02:37;91.80;;;51.33;;
51296;SDS011;37380;45.186;9.792;2022-12-19T14:08:31;92.18;;;53.60;;
51296;SDS011;37380;45.186;9.792;2022-12-19T14:11:39;112.00;;;60.50;;
51296;SDS011;37380;45.186;9.792;2022-12-19T14:14:55;92.00;;;54.15;;
51296;SDS011;37380;45.186;9.792;2022-12-19T14:17:46;90.43;;;51.88;;
51296;SDS011;37380;45.186;9.792;2022-12-19T14:20:18;97.50;;;54.03;;
51296;SDS011;37380;45.186;9.792;2022-12-19T14:23:27;104.35;;;60.38;;
51296;SDS011;37380;45.186;9.792;2022-12-19T14:26:29;104.50;;;54.28;;
51296;SDS011;37380;45.186;9.792;2022-12-19T14:29:32;97.35;;;54.47;;
51296;SDS011;37380;45.186;9.792;2022-12-19T14:32:27;95.82;;;54.58;;
51296;SDS011;37380;45.186;9.792;2022-12-19T14:35:19;106.22;;;55.70;;
51296;SDS011;37380;45.186;9.792;2022-12-19T14:38:19;113.25;;;57.17;;
51296;SDS011;37380;45.186;9.792;2022-12-19T14:41:44;97.93;;;56.60;;
51296;SDS011;37380;45.186;9.792;2022-12-19T14:45:31;109.32;;;56.60;;
51296;SDS011;37380;45.186;9.792;2022-12-19T14:56:00;118.88;;;62.17;;
51296;SDS011;37380;45.186;9.792;2022-12-19T14:59:33;120.55;;;62.30;;
51296;SDS011;37380;45.186;9.792;2022-12-19T15:02:22;122.40;;;59.65;;
51296;SDS011;37380;45.186;9.792;2022-12-19T15:05:30;132.35;;;61.72;;
51296;SDS011;37380;45.186;9.792;2022-12-19T15:08:15;109.88;;;62.92;;
51296;SDS011;37380;45.186;9.792;2022-12-19T15:11:52;121.25;;;59.00;;
51296;SDS011;37380;45.186;9.792;2022-12-19T15:15:22;111.63;;;58.60;;
51296;SDS011;37380;45.186;9.792;2022-12-19T15:17:52;130.82;;;65.50;;
51296;SDS011;37380;45.186;9.792;2022-12-19T15:20:21;133.35;;;62.33;;
51296;SDS011;37380;45.186;9.792;2022-12-19T15:22:55;132.20;;;66.35;;
51296;SDS011;37380;45.186;9.792;2022-12-19T15:25:56;123.97;;;65.90;;
51296;SDS011;37380;45.186;9.792;2022-12-19T15:28:39;130.57;;;67.65;;
51296;SDS011;37380;45.186;9.792;2022-12-19T15:31:41;137.40;;;61.80;;
51296;SDS011;37380;45.186;9.792;2022-12-19T15:37:02;125.82;;;61.92;;
51296;SDS011;37380;45.186;9.792;2022-12-19T15:39:36;143.70;;;67.63;;
51296;SDS011;37380;45.186;9.792;2022-12-19T15:42:37;130.38;;;65.63;;
51296;SDS011;37380;45.186;9.792;2022-12-19T15:45:40;144.93;;;67.47;;
51296;SDS011;37380;45.186;9.792;2022-12-19T15:48:35;145.68;;;63.97;;
51296;SDS011;37380;45.186;9.792;2022-12-19T15:51:08;133.65;;;64.28;;
51296;SDS011;37380;45.186;9.792;2022-12-19T15:53:44;141.65;;;63.30;;
51296;SDS011;37380;45.186;9.792;2022-12-19T15:57:07;130.00;;;68.72;;
51296;SDS011;37380;45.186;9.792;2022-12-19T16:00:16;136.32;;;67.03;;
51296;SDS011;37380;45.186;9.792;2022-12-19T16:02:46;150.15;;;67.13;;
51296;SDS011;37380;45.186;9.792;2022-12-19T16:05:41;139.27;;;66.43;;
51296;SDS011;37380;45.186;9.792;2022-12-19T16:08:42;123.03;;;61.25;;
51296;SDS011;37380;45.186;9.792;2022-12-19T16:11:36;122.50;;;63.20;;
51296;SDS011;37380;45.186;9.792;2022-12-19T16:14:12;146.85;;;67.78;;
51296;SDS011;37380;45.186;9.792;2022-12-19T16:17:10;132.93;;;67.00;;
51296;SDS011;37380;45.186;9.792;2022-12-19T16:19:44;124.63;;;66.35;;
51296;SDS011;37380;45.186;9.792;2022-12-19T16:22:18;138.55;;;67.25;;
51296;SDS011;37380;45.186;9.792;2022-12-19T16:28:16;135.65;;;66.93;;
51296;SDS011;37380;45.186;9.792;2022-12-19T16:30:45;144.07;;;71.05;;
51296;SDS011;37380;45.186;9.792;2022-12-19T16:33:22;143.52;;;67.38;;
51296;SDS011;37380;45.186;9.792;2022-12-19T16:35:54;128.82;;;65.13;;
51296;SDS011;37380;45.186;9.792;2022-12-19T16:38:39;133.85;;;64.28;;
51296;SDS011;37380;45.186;9.792;2022-12-19T16:41:33;143.98;;;69.93;;
51296;SDS011;37380;45.186;9.792;2022-12-19T16:44:12;130.50;;;68.15;;
51296;SDS011;37380;45.186;9.792;2022-12-19T16:46:45;131.85;;;68.05;;
51296;SDS011;37380;45.186;9.792;2022-12-19T16:49:20;138.73;;;66.55;;
51296;SDS011;37380;45.186;9.792;2022-12-19T16:51:51;126.90;;;67.90;;
51296;SDS011;37380;45.186;9.792;2022-12-19T16:54:24;129.20;;;65.32;;
51296;SDS011;37380;45.186;9.792;2022-12-19T16:57:25;134.73;;;68.10;;
51296;SDS011;37380;45.186;9.792;2022-12-19T17:00:29;114.43;;;59.35;;
51296;SDS011;37380;45.186;9.792;2022-12-19T17:02:57;131.23;;;61.78;;
51296;SDS011;37380;45.186;9.792;2022-12-19T17:05:36;127.95;;;66.20;;
51296;SDS011;37380;45.186;9.792;2022-12-19T17:08:37;145.80;;;62.95;;
51296;SDS011;37380;45.186;9.792;2022-12-19T17:11:35;141.98;;;64.50;;
51296;SDS011;37380;45.186;9.792;2022-12-19T17:14:03;123.95;;;67.18;;
51296;SDS011;37380;45.186;9.792;2022-12-19T17:16:34;133.43;;;63.25;;
51296;SDS011;37380;45.186;9.792;2022-12-19T17:19:01;141.90;;;68.93;;
51296;SDS011;37380;45.186;9.792;2022-12-19T17:21:28;149.13;;;66.70;;
51296;SDS011;37380;45.186;9.792;2022-12-19T17:23:55;144.43;;;66.75;;
51296;SDS011;37380;45.186;9.792;2022-12-19T17:26:22;126.90;;;65.80;;
51296;SDS011;37380;45.186;9.792;2022-12-19T17:28:49;117.95;;;61.08;;
51296;SDS011;37380;45.186;9.792;2022-12-19T17:31:25;132.95;;;65.15;;
51296;SDS011;37380;45.186;9.792;2022-12-19T17:34:20;137.75;;;66.55;;
51296;SDS011;37380;45.186;9.792;2022-12-19T17:37:30;134.52;;;65.22;;
51296;SDS011;37380;45.186;9.792;2022-12-19T17:40:17;136.02;;;65.05;;
51296;SDS011;37380;45.186;9.792;2022-12-19T17:43:10;129.02;;;66.65;;
51296;SDS011;37380;45.186;9.792;2022-12-19T17:45:52;125.82;;;62.63;;
51296;SDS011;37380;45.186;9.792;2022-12-19T17:49:25;138.13;;;68.43;;
51296;SDS011;37380;45.186;9.792;2022-12-19T17:52:36;127.15;;;62.92;;
51296;SDS011;37380;45.186;9.792;2022-12-19T17:55:28;123.30;;;66.20;;
51296;SDS011;37380;45.186;9.792;2022-12-19T17:58:55;132.73;;;63.92;;